createdAt,value
2022-11-27T00:01:33.534Z,42.60
2022-11-27T00:04:02.144Z,46.70
2022-11-27T00:06:32.114Z,46.50
2022-11-27T00:09:01.689Z,44.00
2022-11-27T00:11:31.089Z,49.90
2022-11-27T00:16:28.775Z,44.50
2022-11-27T00:18:56.936Z,47.30
2022-11-27T00:21:28.716Z,44.20
2022-11-27T00:24:01.417Z,48.50
2022-11-27T00:26:35.987Z,45.40
2022-11-27T00:29:06.255Z,49.60
2022-11-27T00:31:37.271Z,50.90
2022-11-27T00:34:08.477Z,47.30
2022-11-27T00:36:36.702Z,48.00
2022-11-27T00:39:06.004Z,48.20
2022-11-27T00:41:34.217Z,43.60
2022-11-27T00:44:02.015Z,46.00
2022-11-27T00:46:33.642Z,46.60
2022-11-27T00:49:04.365Z,46.70
2022-11-27T00:51:32.415Z,46.20
2022-11-27T00:54:01.871Z,49.20
2022-11-27T00:58:59.225Z,43.00
2022-11-27T01:01:47.164Z,45.50
2022-11-27T01:04:16.476Z,44.60
2022-11-27T01:06:44.857Z,40.50
2022-11-27T01:11:42.855Z,44.50
2022-11-27T01:14:15.669Z,45.10
2022-11-27T01:16:44.549Z,47.20
2022-11-27T01:19:16.243Z,48.80
2022-11-27T01:21:46.479Z,45.90
2022-11-27T01:24:17.695Z,46.00
2022-11-27T01:26:46.861Z,45.60
2022-11-27T01:29:14.780Z,50.70
2022-11-27T01:31:42.917Z,50.50
2022-11-27T01:36:44.569Z,45.60
2022-11-27T01:39:18.427Z,46.60
2022-11-27T01:41:47.398Z,48.80
2022-11-27T01:44:24.447Z,46.10
2022-11-27T01:46:58.780Z,47.60
2022-11-27T01:49:40.642Z,48.00
2022-11-27T01:52:13.660Z,51.80
2022-11-27T01:55:02.308Z,47.80
2022-11-27T01:57:39.047Z,45.50
2022-11-27T02:00:09.602Z,44.50
2022-11-27T02:02:44.418Z,48.10
2022-11-27T02:05:17.186Z,50.10
2022-11-27T02:07:45.962Z,46.70
2022-11-27T02:10:14.773Z,52.60
2022-11-27T02:12:55.346Z,49.00
2022-11-27T02:15:34.105Z,48.60
2022-11-27T02:18:27.099Z,45.50
2022-11-27T02:21:17.687Z,42.70
2022-11-27T02:24:01.335Z,46.70
2022-11-27T02:27:02.186Z,44.80
2022-11-27T02:29:33.790Z,42.70
2022-11-27T02:32:19.866Z,40.30
2022-11-27T02:35:06.891Z,41.90
2022-11-27T02:37:38.047Z,39.20
2022-11-27T02:40:32.534Z,40.40
2022-11-27T02:43:07.230Z,38.40
2022-11-27T02:45:40.890Z,50.50
2022-11-27T02:48:10.382Z,46.40
2022-11-27T02:50:41.912Z,44.50
2022-11-27T02:53:15.379Z,44.90
2022-11-27T02:55:45.266Z,42.30
2022-11-27T02:58:17.853Z,42.50
2022-11-27T03:00:47.405Z,45.20
2022-11-27T03:05:49.716Z,46.10
2022-11-27T03:08:33.040Z,39.90
2022-11-27T03:11:08.450Z,46.60
2022-11-27T03:13:40.433Z,44.50
2022-11-27T03:16:27.942Z,42.30
2022-11-27T03:19:14.756Z,47.00
2022-11-27T03:21:53.133Z,45.20
2022-11-27T03:24:22.101Z,50.50
2022-11-27T03:26:50.027Z,42.40
2022-11-27T03:29:29.874Z,44.40
2022-11-27T03:31:58.064Z,44.50
2022-11-27T03:34:26.317Z,40.40
2022-11-27T03:36:54.247Z,43.90
2022-11-27T03:39:23.335Z,44.80
2022-11-27T03:42:15.011Z,41.70
2022-11-27T03:44:46.722Z,47.20
2022-11-27T03:47:50.904Z,46.10
2022-11-27T03:50:29.652Z,44.90
2022-11-27T03:53:22.325Z,49.40
2022-11-27T03:56:20.953Z,48.90
2022-11-27T03:59:17.639Z,51.10
2022-11-27T04:01:46.402Z,45.30
2022-11-27T04:04:14.645Z,43.70
2022-11-27T04:06:42.497Z,47.10
2022-11-27T04:09:10.340Z,46.80
2022-11-27T04:11:38.140Z,44.60
2022-11-27T04:14:05.981Z,47.10
2022-11-27T04:16:34.105Z,47.80
2022-11-27T04:19:02.028Z,49.40
2022-11-27T04:21:29.900Z,47.90
2022-11-27T04:23:57.567Z,53.20
2022-11-27T04:26:25.288Z,45.00
2022-11-27T04:28:53.292Z,43.70
2022-11-27T04:31:21.043Z,43.00
2022-11-27T04:33:48.841Z,39.30
2022-11-27T04:36:16.684Z,46.10
2022-11-27T04:38:44.535Z,50.10
2022-11-27T04:41:12.689Z,45.30
2022-11-27T04:43:40.568Z,49.50
2022-11-27T04:46:08.726Z,47.90
2022-11-27T04:48:36.444Z,43.70
2022-11-27T04:51:04.397Z,44.70
2022-11-27T04:53:32.271Z,46.10
2022-11-27T04:55:59.990Z,46.60
2022-11-27T04:58:27.761Z,50.70
2022-11-27T05:00:55.521Z,53.50
2022-11-27T05:03:23.407Z,52.40
2022-11-27T05:05:57.754Z,46.40
2022-11-27T05:08:26.032Z,47.00
2022-11-27T05:11:22.118Z,44.50
2022-11-27T05:14:11.902Z,44.10
2022-11-27T05:16:40.489Z,44.20
2022-11-27T05:19:10.592Z,50.90
2022-11-27T05:21:38.572Z,45.30
2022-11-27T05:24:06.980Z,44.10
2022-11-27T05:26:34.677Z,43.10
2022-11-27T05:29:02.804Z,41.10
2022-11-27T05:31:30.890Z,44.50
2022-11-27T05:33:58.714Z,39.80
2022-11-27T05:36:26.519Z,42.80
2022-11-27T05:38:54.460Z,42.30
2022-11-27T05:41:22.605Z,36.20
2022-11-27T05:43:50.422Z,43.10
2022-11-27T05:46:22.395Z,42.60
2022-11-27T05:48:50.476Z,44.70
2022-11-27T05:51:19.105Z,44.50
2022-11-27T05:53:47.074Z,40.40
2022-11-27T05:56:17.772Z,45.40
2022-11-27T05:58:47.985Z,47.30
2022-11-27T06:01:17.088Z,47.70
2022-11-27T06:03:44.961Z,47.80
2022-11-27T06:06:19.044Z,45.10
2022-11-27T06:08:48.144Z,44.90
2022-11-27T06:11:21.439Z,42.80
2022-11-27T06:13:50.262Z,44.30
2022-11-27T06:16:21.125Z,45.30
2022-11-27T06:18:53.637Z,38.40
2022-11-27T06:21:22.499Z,38.80
2022-11-27T06:23:55.635Z,38.30
2022-11-27T06:26:29.010Z,40.10
2022-11-27T06:28:58.946Z,41.90
2022-11-27T06:31:29.664Z,42.10
2022-11-27T06:33:58.543Z,39.70
2022-11-27T06:36:32.779Z,40.50
2022-11-27T06:39:01.309Z,40.20
2022-11-27T06:41:29.247Z,38.80
2022-11-27T06:43:58.883Z,40.80
2022-11-27T06:46:27.892Z,40.70
2022-11-27T06:48:56.678Z,38.10
2022-11-27T06:51:26.687Z,33.60
2022-11-27T06:53:55.254Z,38.90
2022-11-27T06:56:25.639Z,34.30
2022-11-27T06:58:58.762Z,37.90
2022-11-27T07:01:28.109Z,37.00
2022-11-27T07:03:56.612Z,42.00
2022-11-27T07:06:26.224Z,40.90
2022-11-27T07:08:55.029Z,39.40
2022-11-27T07:11:26.449Z,35.40
2022-11-27T07:13:58.336Z,34.10
2022-11-27T07:16:27.748Z,31.60
2022-11-27T07:21:26.411Z,37.90
2022-11-27T07:23:56.618Z,41.60
2022-11-27T07:26:27.960Z,39.70
2022-11-27T07:28:56.445Z,36.40
2022-11-27T07:31:30.446Z,36.10
2022-11-27T07:33:58.699Z,36.70
2022-11-27T07:36:29.762Z,35.90
2022-11-27T07:38:58.302Z,36.90
2022-11-27T07:41:32.147Z,36.40
2022-11-27T07:44:00.392Z,36.00
2022-11-27T07:46:30.151Z,38.90
2022-11-27T07:48:58.233Z,37.00
2022-11-27T07:51:26.303Z,34.40
2022-11-27T07:53:54.058Z,31.10
2022-11-27T07:56:22.066Z,31.60
2022-11-27T07:58:50.268Z,31.80
2022-11-27T08:01:19.873Z,29.50
2022-11-27T08:03:47.676Z,29.90
2022-11-27T08:06:18.512Z,30.20
2022-11-27T08:08:47.588Z,35.20
2022-11-27T08:11:21.542Z,32.00
2022-11-27T08:13:50.866Z,26.80
2022-11-27T08:18:46.678Z,25.20
2022-11-27T08:21:14.650Z,30.20
2022-11-27T08:23:42.512Z,32.40
2022-11-27T08:26:11.342Z,29.90
2022-11-27T08:28:39.958Z,33.00
2022-11-27T08:31:10.104Z,28.60
2022-11-27T08:33:38.021Z,30.70
2022-11-27T08:36:09.042Z,28.90
2022-11-27T08:38:39.040Z,23.50
2022-11-27T08:41:08.125Z,24.40
2022-11-27T08:43:35.976Z,22.70
2022-11-27T08:46:05.927Z,22.70
2022-11-27T08:48:34.134Z,27.60
2022-11-27T08:51:06.903Z,28.10
2022-11-27T08:53:36.083Z,26.20
2022-11-27T08:56:09.626Z,29.10
2022-11-27T08:58:41.055Z,26.90
2022-11-27T09:01:11.251Z,26.60
2022-11-27T09:03:39.184Z,29.80
2022-11-27T09:06:12.611Z,24.10
2022-11-27T09:08:41.359Z,24.10
2022-11-27T09:11:10.045Z,25.10
2022-11-27T09:13:40.290Z,23.20
2022-11-27T09:16:11.541Z,23.10
2022-11-27T09:18:39.976Z,22.70
2022-11-27T09:21:10.747Z,21.20
2022-11-27T09:23:39.567Z,22.80
2022-11-27T09:26:10.780Z,20.20
2022-11-27T09:28:40.537Z,21.20
2022-11-27T09:31:10.601Z,23.70
2022-11-27T09:33:39.726Z,19.60
2022-11-27T09:36:10.980Z,24.90
2022-11-27T09:38:39.097Z,22.20
2022-11-27T09:41:23.998Z,25.40
2022-11-27T09:43:56.965Z,27.30
2022-11-27T09:46:35.191Z,21.90
2022-11-27T09:49:07.421Z,25.70
2022-11-27T09:51:41.129Z,22.70
2022-11-27T09:54:18.689Z,23.40
2022-11-27T09:56:50.984Z,25.90
2022-11-27T09:59:22.312Z,23.30
2022-11-27T10:01:51.593Z,21.40
2022-11-27T10:07:08.351Z,23.40
2022-11-27T10:09:42.198Z,22.70
2022-11-27T10:12:26.704Z,20.70
2022-11-27T10:15:16.016Z,22.40
2022-11-27T10:20:44.767Z,20.90
2022-11-27T10:23:43.980Z,19.80
2022-11-27T10:26:25.772Z,20.20
2022-11-27T10:29:16.006Z,20.70
2022-11-27T10:31:50.749Z,17.50
2022-11-27T10:34:34.517Z,22.30
2022-11-27T10:37:12.443Z,20.60
2022-11-27T10:39:48.882Z,18.60
2022-11-27T10:42:27.910Z,20.10
2022-11-27T10:45:02.150Z,19.60
2022-11-27T10:47:33.697Z,20.60
2022-11-27T10:50:01.951Z,20.40
2022-11-27T10:52:30.125Z,19.30
2022-11-27T10:55:03.553Z,21.00
2022-11-27T10:58:08.825Z,19.40
2022-11-27T11:00:36.687Z,20.00
2022-11-27T11:03:06.293Z,22.50
2022-11-27T11:05:57.475Z,23.30
2022-11-27T11:08:25.350Z,21.00
2022-11-27T11:11:00.228Z,24.20
2022-11-27T11:13:31.350Z,21.40
2022-11-27T11:16:14.856Z,22.30
2022-11-27T11:18:50.922Z,22.60
2022-11-27T11:21:29.152Z,22.00
2022-11-27T11:24:26.049Z,21.50
2022-11-27T11:26:56.764Z,23.70
2022-11-27T11:29:32.922Z,24.30
2022-11-27T11:32:14.408Z,23.60
2022-11-27T11:34:56.207Z,21.40
2022-11-27T11:37:30.348Z,22.50
2022-11-27T11:40:09.866Z,26.70
2022-11-27T11:43:01.144Z,22.60
2022-11-27T11:45:33.073Z,22.70
2022-11-27T11:48:04.230Z,22.00
2022-11-27T11:50:42.679Z,23.00
2022-11-27T11:53:38.451Z,21.00
2022-11-27T11:56:19.117Z,21.20
2022-11-27T11:59:01.175Z,21.50
2022-11-27T12:02:02.160Z,20.90
2022-11-27T12:04:40.738Z,18.40
2022-11-27T12:07:14.670Z,20.40
2022-11-27T12:10:01.911Z,19.50
2022-11-27T12:13:09.205Z,16.90
2022-11-27T12:15:47.263Z,23.00
2022-11-27T12:18:45.608Z,19.40
2022-11-27T12:21:26.190Z,21.50
2022-11-27T12:24:22.922Z,21.00
2022-11-27T12:27:36.282Z,20.00
2022-11-27T12:30:14.605Z,21.40
2022-11-27T12:33:04.476Z,21.80
2022-11-27T12:35:38.700Z,19.40
2022-11-27T12:38:44.370Z,18.10
2022-11-27T12:41:53.766Z,19.90
2022-11-27T12:44:45.760Z,19.10
2022-11-27T12:47:25.862Z,19.90
2022-11-27T12:50:08.180Z,19.80
2022-11-27T12:52:41.956Z,21.40
2022-11-27T12:55:17.618Z,20.70
2022-11-27T12:58:28.349Z,19.90
2022-11-27T13:01:18.197Z,22.10
2022-11-27T13:04:03.395Z,22.80
2022-11-27T13:06:36.386Z,24.40
2022-11-27T13:09:12.849Z,33.30
2022-11-27T13:11:41.977Z,24.00
2022-11-27T13:14:12.498Z,28.90
2022-11-27T13:16:46.764Z,26.80
2022-11-27T13:19:49.320Z,25.70
2022-11-27T13:22:34.761Z,23.50
2022-11-27T13:25:03.863Z,24.50
2022-11-27T13:27:36.452Z,26.90
2022-11-27T13:30:09.425Z,24.70
2022-11-27T13:32:41.899Z,25.50
2022-11-27T13:35:42.545Z,27.10
2022-11-27T13:38:21.550Z,23.50
2022-11-27T13:40:52.639Z,23.40
2022-11-27T13:43:29.126Z,25.10
2022-11-27T13:46:04.831Z,25.90
2022-11-27T13:48:44.583Z,23.50
2022-11-27T13:51:27.205Z,26.80
2022-11-27T13:54:10.975Z,25.80
2022-11-27T13:56:39.621Z,26.30
2022-11-27T13:59:24.973Z,27.30
2022-11-27T14:01:55.334Z,26.10
2022-11-27T14:04:23.097Z,24.90
2022-11-27T14:07:06.427Z,24.60
2022-11-27T14:09:47.059Z,24.60
2022-11-27T14:12:23.986Z,24.90
2022-11-27T14:15:02.800Z,26.30
2022-11-27T14:17:37.154Z,38.40
2022-11-27T14:20:14.340Z,38.70
2022-11-27T14:23:10.452Z,30.70
2022-11-27T14:25:37.882Z,27.70
2022-11-27T14:28:14.950Z,26.50
2022-11-27T14:31:01.434Z,30.20
2022-11-27T14:33:33.255Z,30.80
2022-11-27T14:36:07.861Z,32.00
2022-11-27T14:38:37.108Z,30.60
2022-11-27T14:41:16.308Z,32.20
2022-11-27T14:43:44.570Z,31.00
2022-11-27T14:46:17.800Z,31.00
2022-11-27T14:48:56.966Z,35.10
2022-11-27T14:51:28.278Z,33.60
2022-11-27T14:54:05.946Z,38.30
2022-11-27T14:56:36.469Z,34.70
2022-11-27T14:59:04.724Z,35.20
2022-11-27T15:01:36.638Z,32.40
2022-11-27T15:04:07.268Z,32.20
2022-11-27T15:06:36.580Z,33.10
2022-11-27T15:09:30.243Z,33.50
2022-11-27T15:11:58.453Z,30.60
2022-11-27T15:14:28.575Z,35.10
2022-11-27T15:16:57.979Z,33.90
2022-11-27T15:19:34.117Z,37.30
2022-11-27T15:22:02.553Z,39.30
2022-11-27T15:24:34.453Z,59.00
2022-11-27T15:27:18.519Z,49.50
2022-11-27T15:29:49.649Z,46.60
2022-11-27T15:32:23.183Z,44.00
2022-11-27T15:34:55.380Z,35.70
2022-11-27T15:37:35.046Z,43.10
2022-11-27T15:40:16.051Z,57.20
2022-11-27T15:42:43.922Z,41.90
2022-11-27T15:45:14.780Z,42.20
2022-11-27T15:47:42.782Z,47.60
2022-11-27T15:50:16.098Z,41.40
2022-11-27T15:52:44.460Z,42.60
2022-11-27T15:55:15.906Z,51.80
2022-11-27T15:57:43.633Z,48.10
2022-11-27T16:00:13.170Z,45.70
2022-11-27T16:05:09.587Z,39.90
2022-11-27T16:07:37.824Z,44.50
2022-11-27T16:10:06.515Z,43.00
2022-11-27T16:12:34.604Z,41.10
2022-11-27T16:15:02.636Z,40.50
2022-11-27T16:17:30.631Z,42.00
2022-11-27T16:19:58.326Z,40.70
2022-11-27T16:22:26.484Z,38.00
2022-11-27T16:24:54.346Z,39.30
2022-11-27T16:27:22.126Z,36.60
2022-11-27T16:29:50.617Z,35.90
2022-11-27T16:32:18.594Z,41.00
2022-11-27T16:34:46.780Z,39.20
2022-11-27T16:37:18.347Z,38.50
2022-11-27T16:39:46.768Z,41.10
2022-11-27T16:42:14.620Z,40.10
2022-11-27T16:44:44.571Z,37.20
2022-11-27T16:47:12.707Z,41.30
2022-11-27T16:49:41.293Z,44.70
2022-11-27T16:52:11.245Z,41.50
2022-11-27T16:54:39.377Z,43.80
2022-11-27T16:57:07.670Z,42.90
2022-11-27T16:59:38.670Z,41.80
2022-11-27T17:02:06.936Z,43.00
2022-11-27T17:04:34.654Z,43.70
2022-11-27T17:07:02.788Z,42.20
2022-11-27T17:09:31.322Z,46.90
2022-11-27T17:11:59.083Z,40.70
2022-11-27T17:16:56.314Z,41.60
2022-11-27T17:19:24.304Z,45.90
2022-11-27T17:21:52.243Z,44.10
2022-11-27T17:24:20.875Z,48.00
2022-11-27T17:26:51.934Z,43.20
2022-11-27T17:29:21.844Z,46.20
2022-11-27T17:31:50.954Z,38.50
2022-11-27T17:34:20.624Z,43.50
2022-11-27T17:36:53.571Z,42.20
2022-11-27T17:39:21.914Z,42.10
2022-11-27T17:41:49.849Z,44.80
2022-11-27T17:44:17.735Z,41.70
2022-11-27T17:46:49.866Z,46.80
2022-11-27T17:49:19.443Z,42.70
2022-11-27T17:51:48.484Z,43.70
2022-11-27T17:54:16.979Z,43.10
2022-11-27T17:56:51.124Z,38.60
2022-11-27T17:59:19.825Z,43.10
2022-11-27T18:01:50.192Z,39.00
2022-11-27T18:04:18.402Z,40.40
2022-11-27T18:06:46.287Z,44.30
2022-11-27T18:09:14.040Z,41.00
2022-11-27T18:11:41.856Z,46.30
2022-11-27T18:14:13.543Z,45.30
2022-11-27T18:16:42.471Z,43.60
2022-11-27T18:19:11.714Z,40.50
2022-11-27T18:21:40.150Z,45.70
2022-11-27T18:24:22.991Z,40.10
2022-11-27T18:27:09.484Z,37.20
2022-11-27T18:29:40.031Z,43.80
2022-11-27T18:32:09.050Z,43.40
2022-11-27T18:34:37.123Z,47.40
2022-11-27T18:37:05.490Z,48.60
2022-11-27T18:39:35.296Z,49.10
2022-11-27T18:42:05.022Z,46.30
2022-11-27T18:44:37.277Z,41.90
2022-11-27T18:47:12.061Z,41.50
2022-11-27T18:49:41.031Z,41.30
2022-11-27T18:52:09.700Z,38.20
2022-11-27T18:54:37.574Z,42.60
2022-11-27T18:57:07.269Z,50.80
2022-11-27T18:59:35.547Z,50.40
2022-11-27T19:02:04.810Z,45.90
2022-11-27T19:04:36.095Z,46.40
2022-11-27T19:07:04.082Z,54.20
2022-11-27T19:09:31.992Z,47.40
2022-11-27T19:12:00.167Z,43.00
2022-11-27T19:14:27.901Z,45.10
2022-11-27T19:16:56.569Z,47.30
2022-11-27T19:19:53.382Z,49.70
2022-11-27T19:22:13.986Z,42.60
2022-11-27T19:24:42.042Z,48.80
2022-11-27T19:27:09.990Z,51.40
2022-11-27T19:29:37.871Z,55.00
2022-11-27T19:32:05.819Z,50.20
2022-11-27T19:34:33.672Z,52.10
2022-11-27T19:37:01.531Z,50.10
2022-11-27T19:39:29.598Z,47.70
2022-11-27T19:41:58.103Z,46.10
2022-11-27T19:44:26.338Z,55.70
2022-11-27T19:46:54.293Z,48.10
2022-11-27T19:49:22.663Z,55.00
2022-11-27T19:51:50.384Z,53.80
2022-11-27T19:54:20.868Z,53.40
2022-11-27T19:56:50.740Z,48.90
2022-11-27T19:59:24.201Z,50.00
2022-11-27T20:01:54.863Z,51.00
2022-11-27T20:04:25.853Z,55.70
2022-11-27T20:06:53.605Z,50.30
2022-11-27T20:09:21.925Z,49.20
2022-11-27T20:11:49.636Z,52.20
2022-11-27T20:14:17.638Z,49.70
2022-11-27T20:16:45.682Z,54.20
2022-11-27T20:19:13.718Z,56.70
2022-11-27T20:21:42.334Z,63.90
2022-11-27T20:24:10.839Z,58.00
2022-11-27T20:26:42.601Z,60.70
2022-11-27T20:29:12.859Z,62.10
2022-11-27T20:31:44.941Z,59.70
2022-11-27T20:34:18.727Z,55.80
2022-11-27T20:36:47.236Z,61.20
2022-11-27T20:39:20.802Z,64.50
2022-11-27T20:41:51.169Z,64.20
2022-11-27T20:44:19.425Z,61.70
2022-11-27T20:46:47.248Z,63.40
2022-11-27T20:49:15.744Z,67.20
2022-11-27T20:51:43.906Z,67.70
2022-11-27T20:54:12.238Z,63.70
2022-11-27T20:56:43.202Z,70.20
2022-11-27T20:59:12.580Z,71.20
2022-11-27T21:01:41.596Z,68.10
2022-11-27T21:04:20.078Z,72.60
2022-11-27T21:06:48.810Z,73.30
2022-11-27T21:09:17.096Z,73.80
2022-11-27T21:11:45.656Z,69.40
2022-11-27T21:14:14.892Z,74.20
2022-11-27T21:16:48.278Z,66.30
2022-11-27T21:19:27.250Z,65.70
2022-11-27T21:21:57.244Z,72.80
2022-11-27T21:24:27.918Z,66.70
2022-11-27T21:26:56.572Z,72.60
2022-11-27T21:29:27.432Z,80.30
2022-11-27T21:31:56.968Z,86.80
2022-11-27T21:34:25.288Z,84.40
2022-11-27T21:36:53.441Z,69.80
2022-11-27T21:39:21.754Z,68.90
2022-11-27T21:41:52.457Z,67.40
2022-11-27T21:44:22.295Z,70.30
2022-11-27T21:46:51.226Z,71.20
2022-11-27T21:49:20.676Z,67.20
2022-11-27T21:54:29.386Z,66.50
2022-11-27T21:56:58.154Z,72.30
2022-11-27T21:59:25.871Z,66.70
2022-11-27T22:01:54.033Z,71.10
2022-11-27T22:04:21.915Z,64.00
2022-11-27T22:06:52.569Z,62.30
2022-11-27T22:09:20.632Z,66.40
2022-11-27T22:11:52.608Z,60.30
2022-11-27T22:14:21.166Z,63.50
2022-11-27T22:16:49.398Z,67.10
2022-11-27T22:19:17.722Z,63.60
2022-11-27T22:21:45.842Z,67.00
2022-11-27T22:24:18.937Z,66.20
2022-11-27T22:26:48.335Z,66.80
2022-11-27T22:29:16.410Z,64.10
2022-11-27T22:31:44.141Z,68.00
2022-11-27T22:34:12.319Z,63.40
2022-11-27T22:36:40.613Z,64.10
2022-11-27T22:39:09.237Z,69.40
2022-11-27T22:41:39.764Z,65.10
2022-11-27T22:44:15.681Z,62.00
2022-11-27T22:46:44.985Z,63.50
2022-11-27T22:49:15.821Z,59.60
2022-11-27T22:51:45.529Z,70.30
2022-11-27T22:54:17.215Z,71.30
2022-11-27T22:56:46.786Z,70.20
2022-11-27T22:59:33.217Z,60.40
2022-11-27T23:02:03.767Z,58.80
2022-11-27T23:04:32.017Z,63.70
2022-11-27T23:07:00.135Z,60.50
2022-11-27T23:09:29.010Z,63.80
2022-11-27T23:11:57.336Z,60.80
2022-11-27T23:14:26.229Z,58.20
2022-11-27T23:16:54.157Z,57.90
2022-11-27T23:19:22.311Z,62.00
2022-11-27T23:21:50.081Z,61.00
2022-11-27T23:24:18.157Z,63.80
2022-11-27T23:26:46.137Z,57.80
2022-11-27T23:29:14.488Z,59.40
2022-11-27T23:31:42.733Z,52.70
2022-11-27T23:34:13.573Z,67.70
2022-11-27T23:36:42.245Z,60.00
2022-11-27T23:39:12.471Z,54.60
2022-11-27T23:41:41.663Z,56.70
2022-11-27T23:44:09.696Z,59.30
2022-11-27T23:46:37.670Z,56.60
2022-11-27T23:49:05.550Z,62.90
2022-11-27T23:51:33.766Z,59.60
2022-11-27T23:54:02.422Z,55.90
2022-11-27T23:56:31.839Z,48.90
2022-11-27T23:59:00.571Z,57.30
